Terminal Aerodrome Forecast
Issued by NWS

Home | Current Version | Previous Version | Graphics & Text | Print | Product List | Glossary On
Versions: 1 2 3 4 5 6 7 8 9 10 11 12 13 14 15 16 17 18 19
806
FTUS43 KICT 081740
TAFRSL
TAF
KRSL 081740Z 0818/0918 32017KT P6SM SKC
     FM082100 31009KT P6SM SKC
     FM090000 VRB03KT P6SM SKC
     FM090600 VRB03KT P6SM BKN070
     FM091400 13009KT P6SM OVC050=

USA.gov is the U.S. government's official web portal to all federal, state and local government web resources and services.